Богородское

Карта отелей и гостиниц, располагающихся рядом с аэропортом Богородское :

Богородское Хабаровский край 52° 22' 54.7788" N, 140° 26' 58.9812" E
Богородское Хабаровский край 52° 22' 54.7788" N, 140° 26' 58.9812" E
Код аэродрома ИКАО: 
UHNB
Код аэродрома RU: 
УХНБ
Координаты: 
N52.38188° E140.44972°
Превышение над уровнем моря : 
49
Основная полоса: 
03/21
Курс магнитный: 
026,7/206,7
Длина основной ВПП: 
1400
Ширина основной ВПП: 
30
Покрытие основной ВПП: 
Твёрдое (бетон)
Освещение ВПП: 
По запросу
Тип: 
Аэродром
Класс аэродрома: 
Принадлежность: 
ГА
Статус: 
Действующий
Сайт: 
www.apdv.net
E-mail аэродрома: 
Страна: 
Россия
Регион: 
Хабаровский край
Город: 
Дополнительная информация: 
Аэропорт МВЛС. Филиал ФКП ''Аэропорты Дальнего Востока''

Найти трансфер

С помощью этой формы Вы можете найти трансфер из аэропорта Богородское в город, аэропорт или вокзал:

Карта места

Javascript is required to view this map.

Погода в аэропортах:

Авиационная погода в Куусамо

Регион: 
Погода METAR: 
EFKS 281950Z AUTO 15006KT 1500 1200 R12/1900N BCFG VV001 09/09 Q1022
Время наблюдения: 
2020-09-28T19:50:00Z
Температура C: 
9.0
Точка росы: 
9.0
Направление ветра: 
150
Скорость ветра (узлы): 
6
Метеорологическая видимость: 
0.93
Явления погоды: 
BCFG
Условия полета: 
LIFR

Авиационная погода в Усть-Каменогорске

Регион: 
Погода METAR: 
UASK 282000Z 26002MPS 5000 BR BKN031 BKN083 04/03 Q1026 R30/090060 NOSIG RMK QFE743/0991
Время наблюдения: 
2020-09-28T20:00:00Z
Температура C: 
4.0
Точка росы: 
3.0
Направление ветра: 
260
Скорость ветра (узлы): 
4
Метеорологическая видимость: 
3.11
Явления погоды: 
BR
Условия полета: 
MVFR
Аэропорт подробнее: 

Авиационная погода в Богашево

Регион: 
Погода METAR: 
UNTT 281930Z 26003MPS 8000 -SHRA FEW021CB 09/06 Q1018 R21/090060 NOSIG RMK QFE748
Время наблюдения: 
2020-09-28T19:30:00Z
Температура C: 
9.0
Точка росы: 
6.0
Направление ветра: 
260
Скорость ветра (узлы): 
6
Метеорологическая видимость: 
4.97
Явления погоды: 
-SHRA
Условия полета: 
MVFR
Аэропорт подробнее: 

Авиационная погода в Чорлу

Регион: 
Погода METAR: 
LTBU 281950Z 16011KT 9999 -SHRA SCT040 BKN100 21/18 Q1014 RMK RWY22 17013KT
Время наблюдения: 
2020-09-28T19:50:00Z
Температура C: 
21.0
Точка росы: 
18.0
Направление ветра: 
160
Скорость ветра (узлы): 
11
Метеорологическая видимость: 
6.21
Явления погоды: 
-SHRA
Условия полета: 
VFR